sensor_id;sensor_type;location;lat;lon;timestamp;temperature;humidity
69938;DHT22;57248;47.320;15.998;2023-07-02T00:00:55;15.27;96.70
69938;DHT22;57248;47.320;15.998;2023-07-02T00:03:28;15.32;96.61
69938;DHT22;57248;47.320;15.998;2023-07-02T00:06:01;15.28;97.15
69938;DHT22;57248;47.320;15.998;2023-07-02T00:08:33;15.35;96.38
69938;DHT22;57248;47.320;15.998;2023-07-02T00:10:59;15.38;96.77
69938;DHT22;57248;47.320;15.998;2023-07-02T00:13:30;15.35;96.43
69938;DHT22;57248;47.320;15.998;2023-07-02T00:16:03;15.27;96.85
69938;DHT22;57248;47.320;15.998;2023-07-02T00:18:34;15.28;97.18
69938;DHT22;57248;47.320;15.998;2023-07-02T00:21:07;15.23;97.32
69938;DHT22;57248;47.320;15.998;2023-07-02T00:23:38;15.27;97.21
69938;DHT22;57248;47.320;15.998;2023-07-02T00:26:10;15.21;97.34
69938;DHT22;57248;47.320;15.998;2023-07-02T00:28:42;15.21;97.02
69938;DHT22;57248;47.320;15.998;2023-07-02T00:31:14;15.26;96.93
69938;DHT22;57248;47.320;15.998;2023-07-02T00:33:47;15.24;97.08
69938;DHT22;57248;47.320;15.998;2023-07-02T00:36:13;15.26;96.76
69938;DHT22;57248;47.320;15.998;2023-07-02T00:38:49;15.23;96.63
69938;DHT22;57248;47.320;15.998;2023-07-02T00:41:21;15.26;97.04
69938;DHT22;57248;47.320;15.998;2023-07-02T00:43:52;15.20;97.71
69938;DHT22;57248;47.320;15.998;2023-07-02T00:46:26;15.24;97.41
69938;DHT22;57248;47.320;15.998;2023-07-02T00:48:58;15.30;97.69
69938;DHT22;57248;47.320;15.998;2023-07-02T00:51:38;15.23;98.01
69938;DHT22;57248;47.320;15.998;2023-07-02T00:54:10;15.20;98.45
69938;DHT22;57248;47.320;15.998;2023-07-02T00:56:42;15.16;98.41
69938;DHT22;57248;47.320;15.998;2023-07-02T00:59:15;15.18;98.38
69938;DHT22;57248;47.320;15.998;2023-07-02T01:01:47;15.26;97.98
69938;DHT22;57248;47.320;15.998;2023-07-02T01:04:22;15.21;98.45
69938;DHT22;57248;47.320;15.998;2023-07-02T01:06:59;15.18;98.60
69938;DHT22;57248;47.320;15.998;2023-07-02T01:09:30;15.18;98.61
69938;DHT22;57248;47.320;15.998;2023-07-02T01:12:08;15.24;98.49
69938;DHT22;57248;47.320;15.998;2023-07-02T01:14:50;15.27;98.14
69938;DHT22;57248;47.320;15.998;2023-07-02T01:17:24;15.30;98.01
69938;DHT22;57248;47.320;15.998;2023-07-02T01:19:57;15.35;97.53
69938;DHT22;57248;47.320;15.998;2023-07-02T01:22:31;15.35;97.75
69938;DHT22;57248;47.320;15.998;2023-07-02T01:25:05;15.38;96.88
69938;DHT22;57248;47.320;15.998;2023-07-02T01:27:38;15.32;97.63
69938;DHT22;57248;47.320;15.998;2023-07-02T01:30:11;15.37;97.57
69938;DHT22;57248;47.320;15.998;2023-07-02T01:32:43;15.41;97.47
69938;DHT22;57248;47.320;15.998;2023-07-02T01:35:15;15.39;97.48
69938;DHT22;57248;47.320;15.998;2023-07-02T01:37:47;15.39;97.94
69938;DHT22;57248;47.320;15.998;2023-07-02T01:40:20;15.42;97.57
69938;DHT22;57248;47.320;15.998;2023-07-02T01:42:52;15.48;97.60
69938;DHT22;57248;47.320;15.998;2023-07-02T01:45:24;15.45;97.85
69938;DHT22;57248;47.320;15.998;2023-07-02T01:47:56;15.49;97.82
69938;DHT22;57248;47.320;15.998;2023-07-02T01:50:28;15.49;97.35
69938;DHT22;57248;47.320;15.998;2023-07-02T01:53:08;15.49;97.01
69938;DHT22;57248;47.320;15.998;2023-07-02T01:55:39;15.55;97.12
69938;DHT22;57248;47.320;15.998;2023-07-02T01:58:05;15.48;97.35
69938;DHT22;57248;47.320;15.998;2023-07-02T02:00:37;15.41;97.90
69938;DHT22;57248;47.320;15.998;2023-07-02T02:03:08;15.39;97.93
69938;DHT22;57248;47.320;15.998;2023-07-02T02:05:40;15.34;98.12
69938;DHT22;57248;47.320;15.998;2023-07-02T02:08:13;15.34;97.98
69938;DHT22;57248;47.320;15.998;2023-07-02T02:10:44;15.32;97.68
69938;DHT22;57248;47.320;15.998;2023-07-02T02:13:16;15.38;97.25
69938;DHT22;57248;47.320;15.998;2023-07-02T02:15:48;15.31;97.72
69938;DHT22;57248;47.320;15.998;2023-07-02T02:18:14;15.31;97.49
69938;DHT22;57248;47.320;15.998;2023-07-02T02:20:46;15.17;97.94
69938;DHT22;57248;47.320;15.998;2023-07-02T02:23:17;15.23;97.54
69938;DHT22;57248;47.320;15.998;2023-07-02T02:25:49;15.23;97.73
69938;DHT22;57248;47.320;15.998;2023-07-02T02:28:24;15.11;97.57
69938;DHT22;57248;47.320;15.998;2023-07-02T02:30:57;14.97;98.59
69938;DHT22;57248;47.320;15.998;2023-07-02T02:33:30;14.98;98.01
69938;DHT22;57248;47.320;15.998;2023-07-02T02:36:03;15.03;98.08
69938;DHT22;57248;47.320;15.998;2023-07-02T02:38:36;15.03;97.43
69938;DHT22;57248;47.320;15.998;2023-07-02T02:41:09;15.01;97.79
69938;DHT22;57248;47.320;15.998;2023-07-02T02:43:46;14.97;97.77
69938;DHT22;57248;47.320;15.998;2023-07-02T02:46:20;14.86;97.48
69938;DHT22;57248;47.320;15.998;2023-07-02T02:48:54;14.83;97.64
69938;DHT22;57248;47.320;15.998;2023-07-02T02:51:32;14.80;97.90
69938;DHT22;57248;47.320;15.998;2023-07-02T02:54:05;14.73;97.83
69938;DHT22;57248;47.320;15.998;2023-07-02T02:56:37;14.70;98.12
69938;DHT22;57248;47.320;15.998;2023-07-02T02:59:09;14.76;98.28
69938;DHT22;57248;47.320;15.998;2023-07-02T03:01:41;14.65;98.25
69938;DHT22;57248;47.320;15.998;2023-07-02T03:04:13;14.59;98.48
69938;DHT22;57248;47.320;15.998;2023-07-02T03:06:45;14.65;98.51
69938;DHT22;57248;47.320;15.998;2023-07-02T03:09:18;14.65;98.25
69938;DHT22;57248;47.320;15.998;2023-07-02T03:11:51;14.67;98.03
69938;DHT22;57248;47.320;15.998;2023-07-02T03:14:16;14.67;98.01
69938;DHT22;57248;47.320;15.998;2023-07-02T03:16:49;14.63;97.67
69938;DHT22;57248;47.320;15.998;2023-07-02T03:19:21;14.66;97.21
69938;DHT22;57248;47.320;15.998;2023-07-02T03:21:53;14.62;97.41
69938;DHT22;57248;47.320;15.998;2023-07-02T03:24:25;14.63;97.17
69938;DHT22;57248;47.320;15.998;2023-07-02T03:26:57;14.59;97.42
69938;DHT22;57248;47.320;15.998;2023-07-02T03:29:29;14.60;96.51
69938;DHT22;57248;47.320;15.998;2023-07-02T03:32:01;14.67;96.10
69938;DHT22;57248;47.320;15.998;2023-07-02T03:34:34;14.69;96.10
69938;DHT22;57248;47.320;15.998;2023-07-02T03:37:07;14.66;96.77
69938;DHT22;57248;47.320;15.998;2023-07-02T03:39:40;14.59;96.49
69938;DHT22;57248;47.320;15.998;2023-07-02T03:42:12;14.56;96.82
69938;DHT22;57248;47.320;15.998;2023-07-02T03:44:44;14.76;96.23
69938;DHT22;57248;47.320;15.998;2023-07-02T03:47:09;14.66;96.60
69938;DHT22;57248;47.320;15.998;2023-07-02T03:49:42;14.75;96.25
69938;DHT22;57248;47.320;15.998;2023-07-02T03:52:14;14.86;95.78
69938;DHT22;57248;47.320;15.998;2023-07-02T03:54:53;14.83;96.46
69938;DHT22;57248;47.320;15.998;2023-07-02T03:57:25;15.23;96.29
69938;DHT22;57248;47.320;15.998;2023-07-02T03:59:58;15.35;94.11
69938;DHT22;57248;47.320;15.998;2023-07-02T04:02:40;15.57;94.67
69938;DHT22;57248;47.320;15.998;2023-07-02T04:05:12;16.21;93.22
69938;DHT22;57248;47.320;15.998;2023-07-02T04:07:44;16.18;92.49
69938;DHT22;57248;47.320;15.998;2023-07-02T04:10:16;16.48;91.92
69938;DHT22;57248;47.320;15.998;2023-07-02T04:12:48;16.43;91.31
69938;DHT22;57248;47.320;15.998;2023-07-02T04:15:20;16.74;91.95
69938;DHT22;57248;47.320;15.998;2023-07-02T04:17:53;16.92;91.41
69938;DHT22;57248;47.320;15.998;2023-07-02T04:20:26;16.67;91.02
69938;DHT22;57248;47.320;15.998;2023-07-02T04:22:51;16.88;90.66
69938;DHT22;57248;47.320;15.998;2023-07-02T04:25:24;17.08;90.87
69938;DHT22;57248;47.320;15.998;2023-07-02T04:27:57;17.09;91.52
69938;DHT22;57248;47.320;15.998;2023-07-02T04:30:30;17.20;92.16
69938;DHT22;57248;47.320;15.998;2023-07-02T04:33:02;17.15;90.76
69938;DHT22;57248;47.320;15.998;2023-07-02T04:35:34;17.16;90.79
69938;DHT22;57248;47.320;15.998;2023-07-02T04:38:00;17.57;90.25
69938;DHT22;57248;47.320;15.998;2023-07-02T04:40:34;17.84;89.61
69938;DHT22;57248;47.320;15.998;2023-07-02T04:43:06;18.00;89.91
69938;DHT22;57248;47.320;15.998;2023-07-02T04:45:38;17.87;88.71
69938;DHT22;57248;47.320;15.998;2023-07-02T04:48:11;17.78;90.02
69938;DHT22;57248;47.320;15.998;2023-07-02T04:50:45;18.29;89.26
69938;DHT22;57248;47.320;15.998;2023-07-02T04:53:24;18.12;90.26
69938;DHT22;57248;47.320;15.998;2023-07-02T04:55:56;18.19;89.35
69938;DHT22;57248;47.320;15.998;2023-07-02T04:58:31;18.43;89.51
69938;DHT22;57248;47.320;15.998;2023-07-02T05:01:04;18.53;89.36
69938;DHT22;57248;47.320;15.998;2023-07-02T05:03:37;18.55;89.88
69938;DHT22;57248;47.320;15.998;2023-07-02T05:06:10;18.57;85.23
69938;DHT22;57248;47.320;15.998;2023-07-02T05:08:35;18.76;86.01
69938;DHT22;57248;47.320;15.998;2023-07-02T05:11:10;18.77;88.65
69938;DHT22;57248;47.320;15.998;2023-07-02T05:13:42;18.83;89.20
69938;DHT22;57248;47.320;15.998;2023-07-02T05:16:14;18.84;88.43
69938;DHT22;57248;47.320;15.998;2023-07-02T05:18:47;19.11;88.11
69938;DHT22;57248;47.320;15.998;2023-07-02T05:21:19;19.34;87.20
69938;DHT22;57248;47.320;15.998;2023-07-02T05:23:52;19.61;87.39
69938;DHT22;57248;47.320;15.998;2023-07-02T05:26:24;19.52;87.24
69938;DHT22;57248;47.320;15.998;2023-07-02T05:28:56;19.65;84.51
69938;DHT22;57248;47.320;15.998;2023-07-02T05:31:28;19.81;83.97
69938;DHT22;57248;47.320;15.998;2023-07-02T05:34:00;19.92;83.01
69938;DHT22;57248;47.320;15.998;2023-07-02T05:36:32;19.90;80.76
69938;DHT22;57248;47.320;15.998;2023-07-02T05:39:04;19.86;79.42
69938;DHT22;57248;47.320;15.998;2023-07-02T05:41:36;19.99;80.88
69938;DHT22;57248;47.320;15.998;2023-07-02T05:44:08;19.93;81.24
69938;DHT22;57248;47.320;15.998;2023-07-02T05:46:40;19.72;77.78
69938;DHT22;57248;47.320;15.998;2023-07-02T05:49:12;19.66;78.71
69938;DHT22;57248;47.320;15.998;2023-07-02T05:51:44;19.62;79.07
69938;DHT22;57248;47.320;15.998;2023-07-02T05:54:23;19.65;79.80
69938;DHT22;57248;47.320;15.998;2023-07-02T05:56:56;19.71;78.15
69938;DHT22;57248;47.320;15.998;2023-07-02T05:59:28;19.86;77.30
69938;DHT22;57248;47.320;15.998;2023-07-02T06:02:00;19.90;77.13
69938;DHT22;57248;47.320;15.998;2023-07-02T06:04:32;20.22;75.83
69938;DHT22;57248;47.320;15.998;2023-07-02T06:07:04;20.53;73.12
69938;DHT22;57248;47.320;15.998;2023-07-02T06:09:36;20.68;74.22
69938;DHT22;57248;47.320;15.998;2023-07-02T06:12:08;20.74;73.28
69938;DHT22;57248;47.320;15.998;2023-07-02T06:14:40;21.38;73.84
69938;DHT22;57248;47.320;15.998;2023-07-02T06:17:12;21.59;72.39
69938;DHT22;57248;47.320;15.998;2023-07-02T06:19:44;21.91;73.59
69938;DHT22;57248;47.320;15.998;2023-07-02T06:22:16;22.07;71.23
69938;DHT22;57248;47.320;15.998;2023-07-02T06:24:48;22.48;71.67
69938;DHT22;57248;47.320;15.998;2023-07-02T06:27:20;22.82;71.32
69938;DHT22;57248;47.320;15.998;2023-07-02T06:29:52;23.17;71.90
69938;DHT22;57248;47.320;15.998;2023-07-02T06:32:17;23.24;70.80
69938;DHT22;57248;47.320;15.998;2023-07-02T06:34:51;23.53;72.73
69938;DHT22;57248;47.320;15.998;2023-07-02T06:37:23;23.16;74.11
69938;DHT22;57248;47.320;15.998;2023-07-02T06:39:55;23.90;74.06
69938;DHT22;57248;47.320;15.998;2023-07-02T06:42:28;23.72;73.03
69938;DHT22;57248;47.320;15.998;2023-07-02T06:45:00;23.98;70.93
69938;DHT22;57248;47.320;15.998;2023-07-02T06:47:32;23.92;71.49
69938;DHT22;57248;47.320;15.998;2023-07-02T06:50:05;23.98;71.07
69938;DHT22;57248;47.320;15.998;2023-07-02T06:52:46;23.04;71.42
69938;DHT22;57248;47.320;15.998;2023-07-02T06:55:18;22.97;72.74
69938;DHT22;57248;47.320;15.998;2023-07-02T06:57:51;23.41;74.58
69938;DHT22;57248;47.320;15.998;2023-07-02T07:00:23;24.53;72.13
69938;DHT22;57248;47.320;15.998;2023-07-02T07:02:56;25.18;66.25
69938;DHT22;57248;47.320;15.998;2023-07-02T07:05:21;25.22;67.12
69938;DHT22;57248;47.320;15.998;2023-07-02T07:07:55;24.01;69.44
69938;DHT22;57248;47.320;15.998;2023-07-02T07:10:27;25.01;67.93
69938;DHT22;57248;47.320;15.998;2023-07-02T07:13:02;24.74;66.60
69938;DHT22;57248;47.320;15.998;2023-07-02T07:15:36;25.80;64.74
69938;DHT22;57248;47.320;15.998;2023-07-02T07:18:08;26.12;60.63
69938;DHT22;57248;47.320;15.998;2023-07-02T07:20:41;27.36;60.71
69938;DHT22;57248;47.320;15.998;2023-07-02T07:23:15;27.68;59.16
69938;DHT22;57248;47.320;15.998;2023-07-02T07:25:48;27.84;55.78
69938;DHT22;57248;47.320;15.998;2023-07-02T07:28:20;27.95;53.73
69938;DHT22;57248;47.320;15.998;2023-07-02T07:30:52;27.84;52.96
69938;DHT22;57248;47.320;15.998;2023-07-02T07:33:24;29.18;51.79
69938;DHT22;57248;47.320;15.998;2023-07-02T07:35:50;29.83;51.24
69938;DHT22;57248;47.320;15.998;2023-07-02T07:38:23;29.72;49.64
69938;DHT22;57248;47.320;15.998;2023-07-02T07:40:56;30.37;48.14
69938;DHT22;57248;47.320;15.998;2023-07-02T07:43:29;29.14;47.39
69938;DHT22;57248;47.320;15.998;2023-07-02T07:46:01;29.41;51.69
69938;DHT22;57248;47.320;15.998;2023-07-02T07:48:33;28.79;53.68
69938;DHT22;57248;47.320;15.998;2023-07-02T07:51:06;28.84;53.25
69938;DHT22;57248;47.320;15.998;2023-07-02T07:53:46;29.45;50.37
69938;DHT22;57248;47.320;15.998;2023-07-02T07:56:18;29.54;48.67
69938;DHT22;57248;47.320;15.998;2023-07-02T07:58:43;29.45;49.36
69938;DHT22;57248;47.320;15.998;2023-07-02T08:01:17;29.73;52.70
69938;DHT22;57248;47.320;15.998;2023-07-02T08:03:52;30.27;50.12
69938;DHT22;57248;47.320;15.998;2023-07-02T08:06:24;29.55;52.59
69938;DHT22;57248;47.320;15.998;2023-07-02T08:08:56;29.52;52.20
69938;DHT22;57248;47.320;15.998;2023-07-02T08:11:29;29.85;50.78
69938;DHT22;57248;47.320;15.998;2023-07-02T08:14:01;30.36;49.80
69938;DHT22;57248;47.320;15.998;2023-07-02T08:16:33;29.52;52.02
69938;DHT22;57248;47.320;15.998;2023-07-02T08:19:06;30.53;49.34
69938;DHT22;57248;47.320;15.998;2023-07-02T08:21:38;31.21;51.53
69938;DHT22;57248;47.320;15.998;2023-07-02T08:24:10;31.90;47.53
69938;DHT22;57248;47.320;15.998;2023-07-02T08:26:42;30.71;47.62
69938;DHT22;57248;47.320;15.998;2023-07-02T08:29:14;29.95;48.76
69938;DHT22;57248;47.320;15.998;2023-07-02T08:31:46;29.73;50.21
69938;DHT22;57248;47.320;15.998;2023-07-02T08:34:18;30.61;45.04
69938;DHT22;57248;47.320;15.998;2023-07-02T08:36:43;34.43;43.19
69938;DHT22;57248;47.320;15.998;2023-07-02T08:39:16;37.45;36.70
69938;DHT22;57248;47.320;15.998;2023-07-02T08:41:48;37.51;37.69
69938;DHT22;57248;47.320;15.998;2023-07-02T08:44:21;38.00;37.66
69938;DHT22;57248;47.320;15.998;2023-07-02T08:46:54;34.29;38.88
69938;DHT22;57248;47.320;15.998;2023-07-02T08:49:28;33.14;41.58
69938;DHT22;57248;47.320;15.998;2023-07-02T08:52:07;31.59;44.64
69938;DHT22;57248;47.320;15.998;2023-07-02T08:54:39;31.60;44.18
69938;DHT22;57248;47.320;15.998;2023-07-02T08:57:12;31.97;45.01
69938;DHT22;57248;47.320;15.998;2023-07-02T08:59:44;37.79;37.11
69938;DHT22;57248;47.320;15.998;2023-07-02T09:02:09;40.51;34.00
69938;DHT22;57248;47.320;15.998;2023-07-02T09:04:42;39.64;31.99
69938;DHT22;57248;47.320;15.998;2023-07-02T09:07:14;40.14;33.59
69938;DHT22;57248;47.320;15.998;2023-07-02T09:09:50;42.63;30.61
69938;DHT22;57248;47.320;15.998;2023-07-02T09:12:26;41.77;31.55
69938;DHT22;57248;47.320;15.998;2023-07-02T09:15:00;43.56;29.20
69938;DHT22;57248;47.320;15.998;2023-07-02T09:17:36;45.43;28.95
69938;DHT22;57248;47.320;15.998;2023-07-02T09:20:09;44.75;28.07
69938;DHT22;57248;47.320;15.998;2023-07-02T09:22:42;42.71;28.14
69938;DHT22;57248;47.320;15.998;2023-07-02T09:25:14;40.12;31.93
69938;DHT22;57248;47.320;15.998;2023-07-02T09:27:40;37.49;32.97
69938;DHT22;57248;47.320;15.998;2023-07-02T09:30:16;36.94;34.32
69938;DHT22;57248;47.320;15.998;2023-07-02T09:32:48;35.11;36.61
69938;DHT22;57248;47.320;15.998;2023-07-02T09:35:20;34.99;36.72
69938;DHT22;57248;47.320;15.998;2023-07-02T09:37:53;35.48;36.34
69938;DHT22;57248;47.320;15.998;2023-07-02T09:40:26;35.14;37.12
69938;DHT22;57248;47.320;15.998;2023-07-02T09:43:01;33.98;36.46
69938;DHT22;57248;47.320;15.998;2023-07-02T09:45:33;34.29;37.57
69938;DHT22;57248;47.320;15.998;2023-07-02T09:48:06;34.04;39.01
69938;DHT22;57248;47.320;15.998;2023-07-02T09:50:40;34.05;38.68
69938;DHT22;57248;47.320;15.998;2023-07-02T09:53:28;33.74;37.57
69938;DHT22;57248;47.320;15.998;2023-07-02T09:56:02;35.85;35.97
69938;DHT22;57248;47.320;15.998;2023-07-02T09:58:34;34.78;36.39
69938;DHT22;57248;47.320;15.998;2023-07-02T10:01:09;34.45;39.16
69938;DHT22;57248;47.320;15.998;2023-07-02T10:03:42;34.19;36.92
69938;DHT22;57248;47.320;15.998;2023-07-02T10:06:07;33.58;37.68
69938;DHT22;57248;47.320;15.998;2023-07-02T10:08:39;35.28;37.90
69938;DHT22;57248;47.320;15.998;2023-07-02T10:11:12;33.57;37.38
69938;DHT22;57248;47.320;15.998;2023-07-02T10:13:45;33.37;38.15
69938;DHT22;57248;47.320;15.998;2023-07-02T10:16:10;32.86;41.19
69938;DHT22;57248;47.320;15.998;2023-07-02T10:18:43;32.48;40.92
69938;DHT22;57248;47.320;15.998;2023-07-02T10:21:16;33.65;39.30
69938;DHT22;57248;47.320;15.998;2023-07-02T10:23:49;33.74;38.08
69938;DHT22;57248;47.320;15.998;2023-07-02T10:26:16;33.16;39.37
69938;DHT22;57248;47.320;15.998;2023-07-02T10:28:58;33.84;38.74
69938;DHT22;57248;47.320;15.998;2023-07-02T10:31:30;35.99;36.46
69938;DHT22;57248;47.320;15.998;2023-07-02T10:33:55;38.51;34.18
69938;DHT22;57248;47.320;15.998;2023-07-02T10:36:28;39.69;32.50
69938;DHT22;57248;47.320;15.998;2023-07-02T10:39:03;37.92;32.67
69938;DHT22;57248;47.320;15.998;2023-07-02T10:41:38;37.72;34.07
69938;DHT22;57248;47.320;15.998;2023-07-02T10:44:10;37.96;33.90
69938;DHT22;57248;47.320;15.998;2023-07-02T10:46:46;38.37;32.73
69938;DHT22;57248;47.320;15.998;2023-07-02T10:49:20;36.97;34.86
69938;DHT22;57248;47.320;15.998;2023-07-02T10:52:01;36.75;34.95
69938;DHT22;57248;47.320;15.998;2023-07-02T10:54:46;35.99;35.38
69938;DHT22;57248;47.320;15.998;2023-07-02T10:57:19;36.91;35.67
69938;DHT22;57248;47.320;15.998;2023-07-02T11:00:06;37.80;32.70
69938;DHT22;57248;47.320;15.998;2023-07-02T11:02:40;40.60;31.09
69938;DHT22;57248;47.320;15.998;2023-07-02T11:05:13;38.51;32.49
69938;DHT22;57248;47.320;15.998;2023-07-02T11:07:46;37.02;33.05
69938;DHT22;57248;47.320;15.998;2023-07-02T11:10:19;36.60;35.24
69938;DHT22;57248;47.320;15.998;2023-07-02T11:12:51;40.04;31.25
69938;DHT22;57248;47.320;15.998;2023-07-02T11:15:23;42.46;28.82
69938;DHT22;57248;47.320;15.998;2023-07-02T11:17:55;38.44;31.47
69938;DHT22;57248;47.320;15.998;2023-07-02T11:20:20;39.26;31.66
69938;DHT22;57248;47.320;15.998;2023-07-02T11:22:52;37.25;33.60
69938;DHT22;57248;47.320;15.998;2023-07-02T11:25:24;38.44;32.80
69938;DHT22;57248;47.320;15.998;2023-07-02T11:28:05;40.22;32.89
69938;DHT22;57248;47.320;15.998;2023-07-02T11:30:45;39.10;31.09
69938;DHT22;57248;47.320;15.998;2023-07-02T11:33:18;39.40;32.90
69938;DHT22;57248;47.320;15.998;2023-07-02T11:35:51;36.91;34.32
69938;DHT22;57248;47.320;15.998;2023-07-02T11:38:23;39.16;32.85
69938;DHT22;57248;47.320;15.998;2023-07-02T11:40:48;39.77;31.19
69938;DHT22;57248;47.320;15.998;2023-07-02T11:43:20;41.10;30.13
69938;DHT22;57248;47.320;15.998;2023-07-02T11:45:52;38.91;33.05
69938;DHT22;57248;47.320;15.998;2023-07-02T11:48:24;37.73;34.79
69938;DHT22;57248;47.320;15.998;2023-07-02T11:50:56;38.81;30.89
69938;DHT22;57248;47.320;15.998;2023-07-02T11:53:35;43.35;29.72
69938;DHT22;57248;47.320;15.998;2023-07-02T11:56:07;42.05;31.12
69938;DHT22;57248;47.320;15.998;2023-07-02T11:58:40;44.50;27.31
69938;DHT22;57248;47.320;15.998;2023-07-02T12:01:19;42.44;29.09
69938;DHT22;57248;47.320;15.998;2023-07-02T12:03:51;43.61;29.01
69938;DHT22;57248;47.320;15.998;2023-07-02T12:06:23;45.69;26.43
69938;DHT22;57248;47.320;15.998;2023-07-02T12:08:48;46.13;26.21
69938;DHT22;57248;47.320;15.998;2023-07-02T12:11:20;40.55;30.10
69938;DHT22;57248;47.320;15.998;2023-07-02T12:13:52;38.13;33.73
69938;DHT22;57248;47.320;15.998;2023-07-02T12:16:24;36.84;33.40
69938;DHT22;57248;47.320;15.998;2023-07-02T12:18:56;40.15;31.78
69938;DHT22;57248;47.320;15.998;2023-07-02T12:21:29;40.31;29.45
69938;DHT22;57248;47.320;15.998;2023-07-02T12:24:02;38.96;32.15
69938;DHT22;57248;47.320;15.998;2023-07-02T12:26:39;41.99;29.34
69938;DHT22;57248;47.320;15.998;2023-07-02T12:29:14;45.72;26.80
69938;DHT22;57248;47.320;15.998;2023-07-02T12:31:46;48.13;23.86
69938;DHT22;57248;47.320;15.998;2023-07-02T12:34:19;45.50;26.31
69938;DHT22;57248;47.320;15.998;2023-07-02T12:36:51;46.14;24.81
69938;DHT22;57248;47.320;15.998;2023-07-02T12:39:24;41.67;29.17
69938;DHT22;57248;47.320;15.998;2023-07-02T12:41:56;42.95;28.12
69938;DHT22;57248;47.320;15.998;2023-07-02T12:44:29;46.52;23.98
69938;DHT22;57248;47.320;15.998;2023-07-02T12:47:01;42.18;27.58
69938;DHT22;57248;47.320;15.998;2023-07-02T12:49:26;38.78;31.09
69938;DHT22;57248;47.320;15.998;2023-07-02T12:51:59;42.66;27.33
69938;DHT22;57248;47.320;15.998;2023-07-02T12:54:31;39.88;32.31
69938;DHT22;57248;47.320;15.998;2023-07-02T12:57:03;36.80;34.64
69938;DHT22;57248;47.320;15.998;2023-07-02T12:59:35;36.13;34.15
69938;DHT22;57248;47.320;15.998;2023-07-02T13:02:07;41.31;29.74
69938;DHT22;57248;47.320;15.998;2023-07-02T13:04:39;39.25;32.56
69938;DHT22;57248;47.320;15.998;2023-07-02T13:07:11;38.67;32.69
69938;DHT22;57248;47.320;15.998;2023-07-02T13:09:43;43.68;28.56
69938;DHT22;57248;47.320;15.998;2023-07-02T13:12:15;46.57;24.77
69938;DHT22;57248;47.320;15.998;2023-07-02T13:14:47;39.08;31.24
69938;DHT22;57248;47.320;15.998;2023-07-02T13:17:19;36.80;35.30
69938;DHT22;57248;47.320;15.998;2023-07-02T13:19:51;36.78;35.21
69938;DHT22;57248;47.320;15.998;2023-07-02T13:22:23;37.05;33.87
69938;DHT22;57248;47.320;15.998;2023-07-02T13:24:56;36.91;33.39
69938;DHT22;57248;47.320;15.998;2023-07-02T13:27:30;37.66;33.57
69938;DHT22;57248;47.320;15.998;2023-07-02T13:30:02;33.29;37.60
69938;DHT22;57248;47.320;15.998;2023-07-02T13:32:35;32.36;39.55
69938;DHT22;57248;47.320;15.998;2023-07-02T13:35:07;30.95;42.05
69938;DHT22;57248;47.320;15.998;2023-07-02T13:37:40;36.00;36.33
69938;DHT22;57248;47.320;15.998;2023-07-02T13:40:12;37.14;33.22
69938;DHT22;57248;47.320;15.998;2023-07-02T13:42:45;44.48;27.31
69938;DHT22;57248;47.320;15.998;2023-07-02T13:45:17;41.95;29.14
69938;DHT22;57248;47.320;15.998;2023-07-02T13:47:57;36.53;34.41
69938;DHT22;57248;47.320;15.998;2023-07-02T13:50:44;33.49;38.18
69938;DHT22;57248;47.320;15.998;2023-07-02T13:53:16;32.25;38.71
69938;DHT22;57248;47.320;15.998;2023-07-02T13:55:48;32.18;39.94
69938;DHT22;57248;47.320;15.998;2023-07-02T13:58:22;31.40;42.68
69938;DHT22;57248;47.320;15.998;2023-07-02T14:00:55;32.13;41.59
69938;DHT22;57248;47.320;15.998;2023-07-02T14:03:27;30.81;43.26
69938;DHT22;57248;47.320;15.998;2023-07-02T14:06:00;30.03;44.93
69938;DHT22;57248;47.320;15.998;2023-07-02T14:08:32;30.29;44.89
69938;DHT22;57248;47.320;15.998;2023-07-02T14:11:04;29.73;45.47
69938;DHT22;57248;47.320;15.998;2023-07-02T14:13:36;29.08;46.18
69938;DHT22;57248;47.320;15.998;2023-07-02T14:16:08;29.00;46.55
69938;DHT22;57248;47.320;15.998;2023-07-02T14:18:40;29.95;44.86
69938;DHT22;57248;47.320;15.998;2023-07-02T14:21:12;29.18;45.55
69938;DHT22;57248;47.320;15.998;2023-07-02T14:23:44;30.99;44.00
69938;DHT22;57248;47.320;15.998;2023-07-02T14:26:16;29.83;44.70
69938;DHT22;57248;47.320;15.998;2023-07-02T14:28:48;30.53;44.54
69938;DHT22;57248;47.320;15.998;2023-07-02T14:31:21;30.23;45.31
69938;DHT22;57248;47.320;15.998;2023-07-02T14:33:53;32.39;40.97
69938;DHT22;57248;47.320;15.998;2023-07-02T14:36:26;32.11;41.58
69938;DHT22;57248;47.320;15.998;2023-07-02T14:38:58;33.90;38.12
69938;DHT22;57248;47.320;15.998;2023-07-02T14:41:30;37.36;33.79
69938;DHT22;57248;47.320;15.998;2023-07-02T14:44:07;37.72;34.85
69938;DHT22;57248;47.320;15.998;2023-07-02T14:46:39;35.75;36.73
69938;DHT22;57248;47.320;15.998;2023-07-02T14:49:14;37.58;34.71
69938;DHT22;57248;47.320;15.998;2023-07-02T14:51:46;36.74;35.86
69938;DHT22;57248;47.320;15.998;2023-07-02T14:54:34;36.56;34.42
69938;DHT22;57248;47.320;15.998;2023-07-02T14:57:06;37.55;34.08
69938;DHT22;57248;47.320;15.998;2023-07-02T14:59:38;36.37;35.49
69938;DHT22;57248;47.320;15.998;2023-07-02T15:02:12;32.56;40.19
69938;DHT22;57248;47.320;15.998;2023-07-02T15:04:45;35.90;36.55
69938;DHT22;57248;47.320;15.998;2023-07-02T15:07:17;39.40;31.69
69938;DHT22;57248;47.320;15.998;2023-07-02T15:09:49;37.79;33.44
69938;DHT22;57248;47.320;15.998;2023-07-02T15:12:21;39.05;31.97
69938;DHT22;57248;47.320;15.998;2023-07-02T15:14:46;37.38;34.53
69938;DHT22;57248;47.320;15.998;2023-07-02T15:17:18;32.96;38.98
69938;DHT22;57248;47.320;15.998;2023-07-02T15:19:51;31.51;42.41
69938;DHT22;57248;47.320;15.998;2023-07-02T15:22:16;29.17;46.01
69938;DHT22;57248;47.320;15.998;2023-07-02T15:24:48;30.67;44.55
69938;DHT22;57248;47.320;15.998;2023-07-02T15:27:21;29.62;46.29
69938;DHT22;57248;47.320;15.998;2023-07-02T15:29:53;33.47;41.17
69938;DHT22;57248;47.320;15.998;2023-07-02T15:32:25;32.76;41.61
69938;DHT22;57248;47.320;15.998;2023-07-02T15:34:57;30.72;45.23
69938;DHT22;57248;47.320;15.998;2023-07-02T15:37:29;28.89;48.22
69938;DHT22;57248;47.320;15.998;2023-07-02T15:40:02;29.06;47.74
69938;DHT22;57248;47.320;15.998;2023-07-02T15:42:34;29.52;47.62
69938;DHT22;57248;47.320;15.998;2023-07-02T15:45:07;29.34;48.68
69938;DHT22;57248;47.320;15.998;2023-07-02T15:47:40;29.18;48.89